Time;durP1;ratioP1;P1;durP2;ratioP2;P2;SDS_P1;SDS_P2;PMS_P1;PMS_P2;Temp;Humidity;BMP_temperature;BMP_pressure;BME280_temperature;BME280_humidity;BME280_pressure;Samples;Min_cycle;Max_cycle;Signal;HPM_P1;HPM_P2
2023/01/19 00:00:16;;;;;;;21.35;17.05;;;2.70;99.90;;;;;;5108556;28;20671;-69
2023/01/19 00:02:44;;;;;;;22.10;17.03;;;2.70;99.90;;;;;;5099655;28;20050;-68
2023/01/19 00:05:10;;;;;;;20.27;18.00;;;2.70;99.90;;;;;;5110430;28;20360;-69
2023/01/19 00:07:36;;;;;;;21.73;16.85;;;2.70;99.90;;;;;;5110954;28;20459;-68
2023/01/19 00:10:02;;;;;;;23.17;16.60;;;2.70;99.90;;;;;;5096103;28;20060;-69
2023/01/19 00:12:27;;;;;;;22.35;16.52;;;2.70;99.90;;;;;;5090549;28;20504;-69
2023/01/19 00:14:53;;;;;;;25.15;17.48;;;2.70;99.90;;;;;;5095471;28;20093;-69
2023/01/19 00:17:19;;;;;;;19.33;16.42;;;2.70;99.90;;;;;;5110699;28;20131;-69
2023/01/19 00:19:44;;;;;;;17.67;15.23;;;2.70;99.90;;;;;;5098053;28;20373;-69
2023/01/19 00:22:10;;;;;;;23.65;17.95;;;2.70;99.90;;;;;;5104221;28;20853;-69
2023/01/19 00:24:35;;;;;;;24.02;18.15;;;2.70;99.90;;;;;;5103539;28;20048;-68
2023/01/19 00:27:02;;;;;;;11.77;7.85;;;2.60;99.90;;;;;;5109364;28;20134;-68
2023/01/19 00:29:32;;;;;;;21.05;16.70;;;2.60;99.90;;;;;;5110073;28;20083;-68
2023/01/19 00:32:02;;;;;;;17.33;15.13;;;2.60;99.90;;;;;;5110416;28;20044;-68
2023/01/19 00:34:35;;;;;;;19.60;15.25;;;2.60;99.90;;;;;;5107608;28;20051;-68
2023/01/19 00:37:08;;;;;;;13.57;12.20;;;2.60;99.90;;;;;;5096244;28;20101;-70
2023/01/19 00:39:34;;;;;;;13.45;11.50;;;2.70;99.90;;;;;;5098774;28;20055;-69
2023/01/19 00:44:44;;;;;;;13.32;10.60;;;2.70;99.90;;;;;;5101672;28;20130;-68
2023/01/19 00:47:09;;;;;;;12.50;9.70;;;2.70;99.90;;;;;;5109559;28;20660;-69
2023/01/19 00:49:35;;;;;;;10.85;8.63;;;2.70;99.90;;;;;;5103646;28;20047;-69
2023/01/19 00:52:01;;;;;;;9.02;7.35;;;2.70;99.90;;;;;;5106670;28;20051;-68
2023/01/19 00:54:26;;;;;;;8.32;6.70;;;2.70;99.90;;;;;;5125504;27;20829;-68
2023/01/19 00:56:52;;;;;;;8.32;6.75;;;2.70;99.90;;;;;;5108245;28;20044;-68
2023/01/19 00:59:18;;;;;;;9.63;7.05;;;2.70;99.90;;;;;;5101529;28;20055;-68
2023/01/19 01:01:44;;;;;;;7.45;6.70;;;2.70;99.90;;;;;;5090035;28;20047;-68
2023/01/19 01:04:13;;;;;;;7.60;6.85;;;2.70;99.90;;;;;;5109886;28;20443;-69
2023/01/19 01:06:39;;;;;;;11.30;6.45;;;2.70;99.90;;;;;;5108542;28;20196;-69
2023/01/19 01:09:10;;;;;;;6.72;6.00;;;2.70;99.90;;;;;;5109829;28;20126;-68
2023/01/19 01:11:40;;;;;;;7.03;6.30;;;2.70;99.90;;;;;;5091174;28;20048;-69
2023/01/19 01:14:07;;;;;;;8.05;7.25;;;2.60;99.90;;;;;;5089058;28;20082;-69
2023/01/19 01:16:32;;;;;;;10.25;7.05;;;2.60;99.90;;;;;;5106152;28;20095;-69
2023/01/19 01:18:58;;;;;;;7.78;6.60;;;2.60;99.90;;;;;;5093756;28;20040;-69
2023/01/19 01:21:24;;;;;;;5.93;5.32;;;2.60;99.90;;;;;;5097594;28;20467;-69
2023/01/19 01:23:49;;;;;;;5.38;4.88;;;2.60;99.90;;;;;;5106472;28;20046;-69
2023/01/19 01:26:15;;;;;;;6.40;5.80;;;2.50;99.90;;;;;;5090996;28;20093;-69
2023/01/19 01:28:42;;;;;;;5.70;5.20;;;2.50;99.90;;;;;;5093642;28;20557;-69
2023/01/19 01:31:07;;;;;;;6.25;5.43;;;2.50;99.90;;;;;;5106385;28;20046;-69
2023/01/19 01:33:33;;;;;;;9.70;6.13;;;2.50;99.90;;;;;;5101791;28;20048;-69
2023/01/19 01:35:59;;;;;;;6.55;5.90;;;2.50;99.90;;;;;;5105463;28;20051;-69
2023/01/19 01:38:24;;;;;;;7.47;6.35;;;2.50;99.90;;;;;;5100890;28;20119;-68
2023/01/19 01:40:50;;;;;;;9.45;7.75;;;2.40;99.90;;;;;;5102995;28;20047;-69
2023/01/19 01:43:18;;;;;;;10.23;9.23;;;2.40;99.90;;;;;;5109135;28;20047;-69
2023/01/19 01:45:44;;;;;;;10.77;9.60;;;2.40;99.90;;;;;;5109163;28;20055;-68
2023/01/19 01:48:17;;;;;;;13.50;11.13;;;2.40;99.90;;;;;;5108521;28;20281;-69
2023/01/19 01:51:38;;;;;;;13.88;12.38;;;2.40;99.90;;;;;;5105151;28;20047;-68
2023/01/19 01:53:40;;;;;;;14.57;12.50;;;2.40;99.90;;;;;;5089081;28;20101;-68
2023/01/19 01:56:11;;;;;;;14.40;12.35;;;2.40;99.90;;;;;;5089980;28;20568;-69
2023/01/19 01:58:38;;;;;;;15.98;14.35;;;2.40;99.90;;;;;;5108222;28;20039;-69
2023/01/19 02:03:50;;;;;;;18.40;15.65;;;2.30;99.90;;;;;;5105977;28;20047;-68
2023/01/19 02:06:16;;;;;;;17.15;14.90;;;2.30;99.90;;;;;;5102427;28;20042;-68
2023/01/19 02:14:22;;;;;;;22.20;16.15;;;2.30;99.90;;;;;;5091601;28;20386;-69
2023/01/19 02:16:48;;;;;;;20.92;17.42;;;2.30;99.90;;;;;;5105974;28;20058;-68
2023/01/19 02:19:19;;;;;;;22.27;17.33;;;2.30;99.90;;;;;;5107411;28;20039;-68
2023/01/19 02:21:56;;;;;;;18.83;16.80;;;2.30;99.90;;;;;;5093759;28;20830;-69
2023/01/19 02:24:22;;;;;;;22.40;18.05;;;2.30;99.90;;;;;;5092612;28;20036;-68
2023/01/19 02:26:49;;;;;;;20.40;17.75;;;2.30;99.90;;;;;;5094984;28;20048;-68
2023/01/19 02:29:18;;;;;;;22.63;18.75;;;2.30;99.90;;;;;;5087987;28;20036;-68
2023/01/19 02:31:44;;;;;;;23.88;19.73;;;2.30;99.90;;;;;;5088017;28;20044;-68
2023/01/19 02:34:14;;;;;;;15.80;7.28;;;2.30;99.90;;;;;;5099732;28;20612;-68
2023/01/19 02:37:00;;;;;;;24.02;20.75;;;2.30;99.90;;;;;;5106846;28;20055;-68
2023/01/19 02:40:00;;;;;;;25.48;20.52;;;2.30;99.90;;;;;;5095275;27;20048;-69
2023/01/19 02:42:44;;;;;;;30.67;22.83;;;2.30;99.90;;;;;;5054696;28;20063;-68
2023/01/19 02:45:13;;;;;;;29.33;22.58;;;2.30;99.90;;;;;;5102626;28;20568;-68
2023/01/19 02:47:51;;;;;;;29.80;22.75;;;2.30;99.90;;;;;;5108063;28;20079;-68
2023/01/19 02:50:42;;;;;;;32.35;25.23;;;2.30;99.90;;;;;;5091221;28;20079;-69
2023/01/19 02:53:20;;;;;;;26.00;23.23;;;2.30;99.90;;;;;;5107554;28;20054;-69
2023/01/19 02:55:59;;;;;;;34.42;27.33;;;2.30;99.90;;;;;;5107412;28;20559;-70
2023/01/19 02:58:53;;;;;;;29.45;24.60;;;2.30;99.90;;;;;;5107328;28;20118;-68
2023/01/19 03:01:30;;;;;;;29.88;24.30;;;2.30;99.90;;;;;;5106825;28;20043;-68
2023/01/19 03:04:26;;;;;;;32.70;25.75;;;2.30;99.90;;;;;;5090141;28;20051;-68
2023/01/19 03:07:00;;;;;;;32.50;26.42;;;2.30;99.90;;;;;;5100361;28;20047;-69
2023/01/19 03:09:28;;;;;;;31.30;24.67;;;2.30;99.90;;;;;;5107693;28;20077;-68
2023/01/19 03:12:08;;;;;;;29.58;25.15;;;2.30;99.90;;;;;;5094284;28;20066;-68
2023/01/19 03:14:39;;;;;;;29.23;24.85;;;2.30;99.90;;;;;;5106386;28;20064;-68
2023/01/19 03:17:09;;;;;;;33.17;25.65;;;2.30;99.90;;;;;;5106583;28;20439;-68
2023/01/19 03:19:39;;;;;;;33.70;24.50;;;2.40;99.90;;;;;;5101631;28;20044;-68
2023/01/19 03:22:10;;;;;;;33.22;25.85;;;2.30;99.90;;;;;;5098109;28;20074;-68
2023/01/19 03:24:40;;;;;;;31.55;25.27;;;2.40;99.90;;;;;;5092894;28;20050;-68
2023/01/19 03:27:12;;;;;;;32.35;25.50;;;2.40;99.90;;;;;;5107774;28;20088;-68
2023/01/19 03:29:41;;;;;;;28.02;23.85;;;2.40;99.90;;;;;;5090387;28;20050;-69
2023/01/19 03:32:11;;;;;;;30.88;23.23;;;2.40;99.90;;;;;;5099725;28;20059;-68
2023/01/19 03:34:38;;;;;;;33.15;24.75;;;2.40;99.90;;;;;;5091297;28;20148;-68
2023/01/19 03:37:09;;;;;;;29.38;24.17;;;2.40;99.90;;;;;;5091747;28;20070;-68
2023/01/19 03:39:35;;;;;;;33.05;24.02;;;2.40;99.90;;;;;;5109895;28;20096;-69
2023/01/19 03:42:04;;;;;;;31.42;24.17;;;2.40;99.90;;;;;;5110853;28;20039;-68
2023/01/19 03:44:33;;;;;;;31.98;23.63;;;2.40;99.90;;;;;;5110614;27;20553;-68
2023/01/19 03:47:00;;;;;;;29.55;25.30;;;2.40;99.90;;;;;;5106377;28;20517;-68
2023/01/19 03:49:30;;;;;;;34.03;25.00;;;2.40;99.90;;;;;;5094976;28;20085;-68
2023/01/19 03:51:57;;;;;;;30.23;25.35;;;2.40;99.90;;;;;;5107624;28;20527;-68
2023/01/19 03:54:23;;;;;;;27.33;24.33;;;2.40;99.90;;;;;;5111281;28;20043;-69
2023/01/19 03:56:51;;;;;;;28.20;24.13;;;2.40;99.90;;;;;;5111190;28;20058;-68
2023/01/19 03:59:18;;;;;;;30.40;23.10;;;2.40;99.90;;;;;;5106434;28;20173;-68
2023/01/19 04:01:45;;;;;;;25.55;22.50;;;2.40;99.90;;;;;;5108900;28;20078;-68
2023/01/19 04:04:12;;;;;;;26.38;22.95;;;2.40;99.90;;;;;;5111133;28;20064;-68
2023/01/19 04:06:38;;;;;;;28.05;21.42;;;2.40;99.90;;;;;;5109959;28;20043;-68
2023/01/19 04:09:04;;;;;;;29.05;23.33;;;2.40;99.90;;;;;;5090649;28;20047;-68
2023/01/19 04:11:30;;;;;;;23.25;20.10;;;2.30;99.90;;;;;;5090585;28;20040;-69
2023/01/19 04:13:56;;;;;;;26.52;21.60;;;2.40;99.90;;;;;;5107302;28;20046;-69
2023/01/19 04:16:22;;;;;;;23.52;19.20;;;2.40;99.90;;;;;;5101584;28;20070;-68
2023/01/19 04:18:48;;;;;;;23.10;19.52;;;2.30;99.90;;;;;;5102321;28;20051;-68
2023/01/19 04:21:14;;;;;;;20.85;17.35;;;2.30;99.90;;;;;;5100361;28;20088;-68
2023/01/19 04:23:40;;;;;;;21.40;18.95;;;2.30;99.90;;;;;;5110588;28;20486;-68
2023/01/19 04:26:08;;;;;;;21.52;18.15;;;2.30;99.90;;;;;;5110760;28;20078;-68
2023/01/19 04:28:35;;;;;;;22.77;18.77;;;2.30;99.90;;;;;;5110555;28;20054;-68
2023/01/19 04:31:02;;;;;;;23.63;17.97;;;2.20;99.90;;;;;;5096559;28;20079;-69
2023/01/19 04:33:28;;;;;;;20.08;16.58;;;2.30;99.90;;;;;;5108845;28;20074;-68
2023/01/19 04:35:54;;;;;;;18.52;16.00;;;2.20;99.90;;;;;;5097279;28;20131;-68
2023/01/19 04:38:21;;;;;;;17.30;15.00;;;2.20;99.90;;;;;;5106621;28;20044;-68
2023/01/19 04:40:51;;;;;;;20.23;16.92;;;2.20;99.90;;;;;;5094656;28;20036;-68
2023/01/19 04:43:18;;;;;;;20.33;16.92;;;2.20;99.90;;;;;;5105676;28;20039;-68
2023/01/19 04:45:45;;;;;;;18.45;15.43;;;2.20;99.90;;;;;;5110857;28;20040;-68
2023/01/19 04:48:11;;;;;;;16.38;14.20;;;2.20;99.90;;;;;;5100156;28;20052;-68
2023/01/19 04:50:38;;;;;;;17.10;15.18;;;2.20;99.90;;;;;;5094260;28;20543;-68
2023/01/19 04:53:03;;;;;;;15.90;14.02;;;2.20;99.90;;;;;;5105100;28;20039;-68
2023/01/19 04:55:29;;;;;;;15.65;13.23;;;2.20;99.90;;;;;;5108396;28;20567;-68
2023/01/19 04:57:55;;;;;;;17.75;14.27;;;2.20;99.90;;;;;;5091776;28;20077;-68
2023/01/19 05:00:21;;;;;;;18.05;14.90;;;2.10;99.90;;;;;;5099387;28;20496;-68
2023/01/19 05:02:47;;;;;;;15.80;13.25;;;2.20;99.90;;;;;;5108105;28;20628;-68
2023/01/19 05:05:12;;;;;;;16.92;13.40;;;2.20;99.90;;;;;;5092994;28;20043;-68
2023/01/19 05:07:38;;;;;;;14.65;12.13;;;2.20;99.90;;;;;;5109499;28;20079;-68
2023/01/19 05:10:05;;;;;;;16.98;13.55;;;2.20;99.90;;;;;;5109815;28;20077;-69
2023/01/19 05:12:32;;;;;;;13.35;10.88;;;2.20;99.90;;;;;;5109530;28;20039;-68
2023/01/19 05:14:58;;;;;;;12.40;11.10;;;2.20;99.90;;;;;;5099519;28;20040;-69
2023/01/19 05:17:23;;;;;;;11.60;10.40;;;2.20;99.90;;;;;;5097709;28;20429;-69
2023/01/19 05:19:49;;;;;;;12.05;10.73;;;2.20;99.90;;;;;;5087987;28;20051;-68
2023/01/19 05:22:15;;;;;;;13.70;11.57;;;2.20;99.90;;;;;;5098467;28;20044;-68
2023/01/19 05:24:41;;;;;;;11.98;10.68;;;2.20;99.90;;;;;;5107613;28;20122;-68
2023/01/19 05:27:07;;;;;;;12.18;10.63;;;2.30;99.90;;;;;;5108457;28;20536;-68
2023/01/19 05:29:33;;;;;;;12.18;9.85;;;2.30;99.90;;;;;;5107851;28;20062;-68
2023/01/19 05:31:59;;;;;;;13.27;10.23;;;2.30;99.90;;;;;;5095711;28;20401;-68
2023/01/19 05:34:25;;;;;;;11.15;9.35;;;2.30;99.90;;;;;;5095766;28;20835;-68
2023/01/19 05:36:51;;;;;;;12.30;8.75;;;2.30;99.90;;;;;;5103791;28;20043;-68
2023/01/19 05:39:17;;;;;;;10.52;7.72;;;2.30;99.90;;;;;;5098899;28;20040;-68
2023/01/19 05:41:44;;;;;;;11.80;8.82;;;2.30;99.90;;;;;;5088236;28;20073;-68
2023/01/19 05:44:10;;;;;;;7.97;6.10;;;2.30;99.90;;;;;;5088412;28;20127;-68
2023/01/19 05:46:38;;;;;;;9.43;7.05;;;2.30;99.90;;;;;;5094252;28;20464;-68
2023/01/19 05:49:06;;;;;;;9.43;6.40;;;2.30;99.90;;;;;;5106980;28;20714;-68
2023/01/19 05:51:36;;;;;;;12.52;7.93;;;2.30;99.90;;;;;;5098895;28;20543;-68
2023/01/19 05:54:06;;;;;;;10.00;7.50;;;2.30;99.90;;;;;;5087687;28;20056;-68
2023/01/19 05:56:33;;;;;;;10.23;7.18;;;2.30;99.90;;;;;;5100388;28;20047;-68
2023/01/19 05:58:59;;;;;;;14.10;7.57;;;2.30;99.90;;;;;;5090703;28;20420;-68
2023/01/19 06:01:25;;;;;;;9.75;6.78;;;2.30;99.90;;;;;;5088264;28;20081;-68
2023/01/19 06:03:51;;;;;;;5.75;3.13;;;2.30;99.90;;;;;;5096191;28;20066;-68
2023/01/19 06:06:17;;;;;;;8.93;6.20;;;2.30;99.90;;;;;;5097833;28;20048;-68
2023/01/19 06:08:43;;;;;;;6.85;4.75;;;2.30;99.90;;;;;;5107680;28;20048;-68
2023/01/19 06:11:09;;;;;;;8.70;4.65;;;2.30;99.90;;;;;;5108346;28;20048;-68
2023/01/19 06:13:35;;;;;;;6.88;4.55;;;2.30;99.90;;;;;;5107394;28;20052;-69
2023/01/19 06:16:01;;;;;;;7.38;4.35;;;2.30;99.90;;;;;;5106560;28;20080;-68
2023/01/19 06:18:28;;;;;;;12.30;4.72;;;2.30;99.90;;;;;;5107695;28;20087;-68
2023/01/19 06:20:57;;;;;;;5.97;3.78;;;2.30;99.90;;;;;;5092362;28;20050;-68
2023/01/19 06:23:33;;;;;;;7.53;3.63;;;2.30;99.90;;;;;;5089147;28;20509;-68
2023/01/19 06:25:59;;;;;;;10.00;3.88;;;2.30;99.90;;;;;;5086416;28;20040;-69
2023/01/19 06:28:25;;;;;;;8.15;3.42;;;2.30;99.90;;;;;;5092636;28;20852;-69
2023/01/19 06:30:52;;;;;;;6.68;3.22;;;2.30;99.90;;;;;;5086318;28;20051;-69
2023/01/19 06:33:19;;;;;;;9.77;3.38;;;2.30;99.90;;;;;;5099876;28;20138;-68
2023/01/19 06:35:46;;;;;;;2.25;1.08;;;2.30;99.90;;;;;;5102138;28;20483;-69
2023/01/19 06:38:13;;;;;;;15.23;4.18;;;2.30;99.90;;;;;;5101583;28;20055;-69
2023/01/19 06:40:39;;;;;;;7.65;3.15;;;2.30;99.90;;;;;;5105773;28;20127;-69
2023/01/19 06:43:07;;;;;;;5.75;2.28;;;2.30;99.90;;;;;;5098420;28;20156;-69
2023/01/19 06:45:33;;;;;;;6.85;2.92;;;2.30;99.90;;;;;;5087257;28;20139;-69
2023/01/19 06:47:59;;;;;;;16.48;2.58;;;2.40;99.90;;;;;;5095629;28;20119;-69
2023/01/19 06:50:26;;;;;;;8.48;3.15;;;2.40;99.90;;;;;;5087168;28;20040;-69
2023/01/19 06:52:52;;;;;;;12.40;2.30;;;2.40;99.90;;;;;;5100449;28;20122;-69
2023/01/19 06:55:18;;;;;;;7.80;2.65;;;2.40;99.90;;;;;;5071606;28;20118;-69
2023/01/19 06:57:44;;;;;;;6.57;2.80;;;2.40;99.90;;;;;;5105542;28;20039;-69
2023/01/19 07:00:12;;;;;;;4.53;2.25;;;2.40;99.90;;;;;;5092640;28;20051;-69
2023/01/19 07:02:41;;;;;;;6.22;2.55;;;2.40;99.90;;;;;;5104018;28;20047;-69
2023/01/19 07:05:08;;;;;;;5.90;2.65;;;2.40;99.90;;;;;;5098226;28;20058;-69
2023/01/19 07:07:34;;;;;;;10.27;2.38;;;2.30;99.90;;;;;;5106921;28;20126;-69
2023/01/19 07:10:00;;;;;;;5.55;2.33;;;2.30;99.90;;;;;;5107110;28;20511;-68
2023/01/19 07:12:25;;;;;;;5.00;2.38;;;2.30;99.90;;;;;;5100660;28;20136;-69
2023/01/19 07:14:53;;;;;;;8.60;2.88;;;2.30;99.90;;;;;;5097296;28;20123;-69
2023/01/19 07:17:19;;;;;;;8.27;2.30;;;2.40;99.90;;;;;;5102461;28;20043;-69
2023/01/19 07:19:45;;;;;;;8.05;2.55;;;2.30;99.90;;;;;;5098871;28;21716;-69
2023/01/19 07:22:11;;;;;;;5.93;2.20;;;2.30;99.90;;;;;;5092895;28;20072;-69
2023/01/19 07:24:36;;;;;;;16.08;2.60;;;2.30;99.90;;;;;;5106754;28;20116;-69
2023/01/19 07:27:04;;;;;;;12.40;2.55;;;2.30;99.90;;;;;;5095438;28;20056;-69
2023/01/19 07:29:29;;;;;;;5.38;1.65;;;2.30;99.90;;;;;;5096653;28;20073;-68
2023/01/19 07:31:55;;;;;;;3.72;1.70;;;2.20;99.90;;;;;;5097853;28;20035;-69
2023/01/19 07:34:21;;;;;;;11.15;2.28;;;2.20;99.90;;;;;;5085023;28;20524;-69
2023/01/19 07:36:47;;;;;;;4.32;1.95;;;2.20;99.90;;;;;;5098674;28;20044;-69
2023/01/19 07:39:13;;;;;;;11.35;2.47;;;2.20;99.90;;;;;;5090718;28;20204;-69
2023/01/19 07:41:38;;;;;;;6.95;2.33;;;2.20;99.90;;;;;;5098513;28;20498;-69
2023/01/19 07:44:04;;;;;;;5.65;2.65;;;2.20;99.90;;;;;;5093232;28;20557;-68
2023/01/19 07:46:30;;;;;;;9.77;3.25;;;2.20;99.90;;;;;;5105833;28;20051;-68
2023/01/19 07:48:56;;;;;;;10.77;2.38;;;2.30;99.90;;;;;;5107119;28;20039;-68
2023/01/19 07:51:22;;;;;;;7.38;2.22;;;2.30;99.90;;;;;;5097169;28;20051;-69
2023/01/19 07:53:50;;;;;;;15.85;2.97;;;2.30;99.90;;;;;;5094493;28;20751;-68
2023/01/19 07:56:16;;;;;;;18.17;2.90;;;2.30;99.90;;;;;;5100633;28;20815;-69
2023/01/19 07:58:42;;;;;;;11.57;3.38;;;2.40;99.90;;;;;;5095494;28;20044;-68
2023/01/19 08:01:08;;;;;;;7.80;2.80;;;2.40;99.90;;;;;;5105612;28;20054;-69
2023/01/19 08:03:34;;;;;;;10.38;3.20;;;2.40;99.90;;;;;;5100556;28;20052;-69
2023/01/19 08:06:01;;;;;;;12.50;3.25;;;2.40;99.90;;;;;;5102154;28;20092;-69
2023/01/19 08:08:28;;;;;;;14.15;3.78;;;2.40;99.90;;;;;;5106940;28;20082;-68
2023/01/19 08:10:54;;;;;;;24.83;4.07;;;2.40;99.90;;;;;;5105747;28;20039;-68
2023/01/19 08:13:20;;;;;;;6.82;1.90;;;2.40;99.90;;;;;;5105598;28;20126;-68
2023/01/19 08:15:50;;;;;;;16.35;3.63;;;2.50;99.90;;;;;;5103758;28;20040;-69
2023/01/19 08:18:16;;;;;;;26.88;4.15;;;2.50;99.90;;;;;;5103451;28;20522;-69
2023/01/19 08:20:44;;;;;;;25.70;4.50;;;2.50;99.90;;;;;;5101457;28;20476;-68
2023/01/19 08:23:13;;;;;;;12.27;3.10;;;2.50;99.90;;;;;;5100123;28;20048;-68
2023/01/19 08:25:41;;;;;;;17.77;3.58;;;2.60;99.90;;;;;;5091989;28;20047;-68
2023/01/19 08:28:07;;;;;;;5.63;1.90;;;2.60;99.90;;;;;;5093528;28;20409;-69
2023/01/19 08:30:34;;;;;;;26.38;4.82;;;2.60;99.90;;;;;;5089670;28;20039;-69
2023/01/19 08:33:03;;;;;;;10.45;3.55;;;2.70;99.90;;;;;;5092010;28;20126;-69
2023/01/19 08:35:35;;;;;;;9.75;3.28;;;2.70;99.90;;;;;;5085701;28;20079;-68
2023/01/19 08:38:02;;;;;;;3.28;1.33;;;2.70;99.90;;;;;;5102898;28;20296;-69
2023/01/19 08:40:29;;;;;;;17.88;4.47;;;2.80;99.90;;;;;;5098372;28;20166;-69
2023/01/19 08:43:04;;;;;;;15.25;4.40;;;2.80;99.90;;;;;;5106365;28;20578;-68
2023/01/19 08:45:30;;;;;;;25.17;3.47;;;2.80;99.90;;;;;;5089428;28;20044;-69
2023/01/19 08:47:59;;;;;;;16.13;4.00;;;2.90;99.90;;;;;;5090119;28;20044;-68
2023/01/19 08:50:27;;;;;;;14.82;3.83;;;2.80;99.90;;;;;;5105217;28;20042;-69
2023/01/19 08:52:56;;;;;;;19.48;4.57;;;2.80;99.90;;;;;;5104501;28;20043;-68
2023/01/19 08:55:23;;;;;;;23.60;4.10;;;2.80;99.90;;;;;;5092773;28;20126;-69
2023/01/19 08:57:56;;;;;;;17.52;3.47;;;2.80;99.90;;;;;;5101384;28;20554;-69
2023/01/19 09:00:24;;;;;;;12.05;3.75;;;2.70;99.90;;;;;;5096387;28;20051;-68
2023/01/19 09:02:52;;;;;;;22.13;5.78;;;2.70;99.90;;;;;;5097249;28;20137;-68
2023/01/19 09:05:18;;;;;;;;;;;2.70;99.90;;;;;;5101536;28;20043;-69
2023/01/19 09:07:46;;;;;;;26.52;4.88;;;2.70;99.90;;;;;;5096718;27;19927;-68
2023/01/19 09:10:16;;;;;;;10.68;3.85;;;2.60;99.90;;;;;;5100794;28;20055;-69
2023/01/19 09:12:43;;;;;;;16.77;3.55;;;2.70;99.90;;;;;;5102124;28;20044;-69
2023/01/19 09:15:11;;;;;;;12.65;3.58;;;2.70;99.90;;;;;;5102145;28;20103;-68
2023/01/19 09:17:37;;;;;;;11.60;3.63;;;2.70;99.90;;;;;;5101135;28;20105;-68
2023/01/19 09:20:04;;;;;;;14.90;4.03;;;2.70;99.90;;;;;;5092867;28;20436;-69
2023/01/19 09:22:31;;;;;;;11.80;3.95;;;2.80;99.90;;;;;;5089412;28;20054;-68
2023/01/19 09:24:57;;;;;;;20.67;5.07;;;2.80;99.90;;;;;;5093834;28;20078;-69
2023/01/19 09:27:25;;;;;;;27.00;5.13;;;2.90;99.90;;;;;;5104890;28;20094;-69
2023/01/19 09:29:53;;;;;;;18.88;4.45;;;2.90;99.90;;;;;;5092978;28;20047;-69
2023/01/19 09:32:20;;;;;;;;;;;3.00;99.90;;;;;;5091884;28;20096;-69
2023/01/19 09:34:46;;;;;;;19.58;5.07;;;3.00;99.90;;;;;;5102100;28;19920;-69
2023/01/19 09:37:14;;;;;;;20.25;4.30;;;3.00;99.90;;;;;;5103649;28;20445;-69
2023/01/19 09:39:40;;;;;;;17.77;4.95;;;3.10;99.90;;;;;;5099981;28;20035;-69
2023/01/19 09:42:36;;;;;;;29.10;5.53;;;3.10;99.90;;;;;;5097335;28;20059;-69
2023/01/19 09:45:06;;;;;;;19.17;5.07;;;3.10;99.90;;;;;;5085507;28;20060;-69
2023/01/19 09:47:33;;;;;;;17.70;4.40;;;3.20;99.90;;;;;;5094686;28;20067;-68
2023/01/19 09:50:11;;;;;;;25.92;5.68;;;3.20;99.90;;;;;;5096567;28;20040;-69
2023/01/19 09:52:41;;;;;;;16.20;4.95;;;3.20;99.90;;;;;;5097607;28;20040;-69
2023/01/19 09:55:20;;;;;;;18.85;5.18;;;3.20;99.90;;;;;;5105856;28;20061;-69
2023/01/19 09:57:46;;;;;;;26.77;5.55;;;3.20;99.90;;;;;;5097321;28;20085;-69
2023/01/19 10:00:18;;;;;;;25.55;6.20;;;3.20;99.90;;;;;;5108733;28;20051;-69
2023/01/19 10:02:57;;;;;;;24.38;5.57;;;3.20;99.90;;;;;;5097176;28;20088;-69
2023/01/19 10:05:28;;;;;;;15.20;4.63;;;3.20;99.90;;;;;;5102887;28;20088;-69
2023/01/19 10:08:16;;;;;;;33.00;6.35;;;3.20;99.90;;;;;;5091123;28;20075;-69
2023/01/19 10:10:47;;;;;;;22.05;5.43;;;3.30;99.90;;;;;;5092918;28;20076;-69
2023/01/19 10:13:21;;;;;;;20.95;5.15;;;3.30;99.90;;;;;;5102051;28;20036;-69
2023/01/19 10:15:49;;;;;;;21.73;5.40;;;3.40;99.90;;;;;;5083133;28;20051;-69
2023/01/19 10:18:31;;;;;;;;;;;3.50;99.90;;;;;;5078057;28;20043;-69
2023/01/19 10:21:09;;;;;;;16.95;5.47;;;3.60;99.90;;;;;;5099459;28;19924;-69
2023/01/19 10:23:42;;;;;;;25.10;6.23;;;3.70;99.90;;;;;;5088041;28;20120;-69
2023/01/19 10:26:21;;;;;;;22.75;5.50;;;3.80;99.90;;;;;;5089840;28;20108;-69
2023/01/19 10:28:50;;;;;;;23.25;5.30;;;3.90;99.90;;;;;;5091410;28;20604;-68
2023/01/19 10:31:22;;;;;;;19.02;4.40;;;4.00;99.90;;;;;;5087880;28;20036;-69
2023/01/19 10:33:52;;;;;;;19.83;5.50;;;4.10;99.90;;;;;;5100945;28;20060;-69
2023/01/19 10:36:35;;;;;;;19.45;4.82;;;4.30;99.90;;;;;;5090404;28;20484;-69
2023/01/19 10:39:06;;;;;;;16.08;4.68;;;4.30;99.90;;;;;;5087605;28;20078;-69
2023/01/19 10:41:44;;;;;;;27.60;4.88;;;4.40;99.90;;;;;;5087185;28;20078;-69
2023/01/19 10:44:10;;;;;;;;;;;4.50;99.90;;;;;;5087882;28;20039;-69
2023/01/19 10:46:44;;;;;;;28.42;5.60;;;4.60;99.90;;;;;;5097820;28;19924;-69
2023/01/19 10:49:30;;;;;;;17.63;4.15;;;4.70;99.90;;;;;;5093314;28;20044;-69
2023/01/19 10:51:58;;;;;;;17.25;4.75;;;4.80;99.90;;;;;;5092904;28;20042;-69
2023/01/19 10:54:26;;;;;;;13.10;4.25;;;4.80;99.90;;;;;;5105346;28;20511;-69
2023/01/19 10:56:58;;;;;;;15.50;3.97;;;4.90;99.90;;;;;;5094238;28;20047;-68
2023/01/19 10:59:49;;;;;;;21.52;4.82;;;5.00;99.90;;;;;;5107655;28;20168;-69
2023/01/19 11:02:26;;;;;;;17.42;4.30;;;5.10;99.90;;;;;;5085910;28;20054;-68
2023/01/19 11:04:54;;;;;;;11.68;3.75;;;5.20;99.90;;;;;;5087267;28;20063;-69
2023/01/19 11:07:29;;;;;;;10.70;3.22;;;5.30;99.90;;;;;;5098995;28;20032;-68
2023/01/19 11:10:16;;;;;;;17.60;4.10;;;5.40;99.90;;;;;;5101362;28;20050;-69
2023/01/19 11:13:11;;;;;;;18.83;3.90;;;5.50;99.90;;;;;;5088817;28;20510;-68
2023/01/19 11:16:06;;;;;;;14.63;4.75;;;5.60;99.90;;;;;;5088421;28;20047;-69
2023/01/19 11:18:38;;;;;;;12.20;3.53;;;5.70;99.90;;;;;;5075269;28;20143;-68
2023/01/19 11:21:06;;;;;;;14.23;4.30;;;5.70;99.90;;;;;;5098423;28;20140;-69
2023/01/19 11:23:33;;;;;;;14.23;4.60;;;5.80;99.90;;;;;;5102149;28;20075;-69
2023/01/19 11:26:01;;;;;;;21.88;4.65;;;5.80;99.90;;;;;;5086793;28;20071;-69
2023/01/19 11:28:34;;;;;;;12.75;3.33;;;5.90;99.90;;;;;;5093781;28;20058;-69
2023/01/19 11:31:15;;;;;;;19.58;4.68;;;5.90;99.90;;;;;;5100805;28;20036;-69
2023/01/19 11:33:45;;;;;;;11.75;3.65;;;6.00;99.90;;;;;;5092920;28;20059;-69
2023/01/19 11:36:19;;;;;;;12.10;2.95;;;6.00;99.90;;;;;;5088802;28;20921;-69
2023/01/19 11:38:49;;;;;;;12.82;4.35;;;6.10;99.90;;;;;;5087201;28;20052;-69
2023/01/19 11:41:21;;;;;;;15.98;4.00;;;6.20;99.90;;;;;;5098686;28;20137;-69
2023/01/19 11:44:08;;;;;;;17.70;3.58;;;6.30;99.90;;;;;;5085661;28;20485;-69
2023/01/19 11:46:37;;;;;;;16.50;4.30;;;6.30;99.90;;;;;;5085226;28;20051;-69
2023/01/19 11:49:06;;;;;;;19.15;2.85;;;6.20;99.90;;;;;;5086733;28;20051;-69
2023/01/19 11:51:48;;;;;;;15.77;3.85;;;6.30;99.90;;;;;;5103833;28;20050;-69
2023/01/19 11:54:22;;;;;;;14.00;3.25;;;6.30;99.90;;;;;;5110546;28;20044;-69
2023/01/19 11:56:50;;;;;;;16.58;3.08;;;6.40;99.90;;;;;;5106598;28;20055;-69
2023/01/19 11:59:17;;;;;;;17.05;3.25;;;6.50;99.90;;;;;;5095326;28;20108;-69
2023/01/19 12:01:51;;;;;;;5.35;2.40;;;6.50;99.90;;;;;;5111151;28;20047;-69
2023/01/19 12:04:23;;;;;;;7.38;2.67;;;6.40;99.90;;;;;;5111462;27;20035;-69
2023/01/19 12:06:53;;;;;;;14.40;3.55;;;6.40;99.90;;;;;;5110307;28;20123;-69
2023/01/19 12:09:23;;;;;;;9.05;2.83;;;6.40;99.90;;;;;;5111040;28;20043;-67
2023/01/19 12:11:56;;;;;;;9.25;2.95;;;6.50;99.90;;;;;;5109820;28;20050;-68
2023/01/19 12:15:04;;;;;;;11.15;2.67;;;6.50;99.90;;;;;;5104187;28;20079;-69
2023/01/19 12:17:46;;;;;;;9.50;2.35;;;6.50;99.90;;;;;;5094381;28;20036;-69
2023/01/19 12:20:20;;;;;;;9.35;2.47;;;6.40;99.90;;;;;;5109885;28;20059;-70
2023/01/19 12:22:58;;;;;;;15.60;3.30;;;6.40;99.90;;;;;;5098773;28;20036;-69
2023/01/19 12:25:50;;;;;;;5.80;2.13;;;6.50;99.90;;;;;;5096827;28;20035;-69
2023/01/19 12:28:17;;;;;;;9.90;2.80;;;6.50;99.90;;;;;;5108939;28;20462;-69
2023/01/19 12:30:48;;;;;;;12.00;2.60;;;6.50;99.90;;;;;;5106498;28;20513;-69
2023/01/19 12:33:20;;;;;;;11.65;2.53;;;6.50;99.90;;;;;;5103844;28;20423;-69
2023/01/19 12:35:59;;;;;;;7.97;2.72;;;6.40;99.90;;;;;;5101070;28;20120;-69
2023/01/19 12:38:38;;;;;;;9.00;3.22;;;6.40;99.90;;;;;;5091380;28;20054;-69
2023/01/19 12:41:22;;;;;;;;;;;6.40;99.90;;;;;;5095937;28;20101;-69
2023/01/19 12:44:15;;;;;;;18.00;3.00;;;6.40;99.90;;;;;;5098377;28;19959;-69
2023/01/19 12:46:53;;;;;;;9.25;2.25;;;6.50;99.90;;;;;;5092114;28;20135;-69
2023/01/19 12:49:26;;;;;;;15.77;3.53;;;6.50;99.90;;;;;;5102799;28;20051;-69
2023/01/19 12:52:16;;;;;;;10.88;2.25;;;6.50;99.90;;;;;;5092829;28;20048;-69
2023/01/19 12:55:13;;;;;;;7.63;2.10;;;6.50;99.90;;;;;;5089890;28;20505;-67
2023/01/19 12:57:39;;;;;;;15.85;3.08;;;6.40;99.90;;;;;;5087402;28;20496;-69
2023/01/19 13:00:31;;;;;;;19.05;2.78;;;6.30;99.90;;;;;;5106221;28;20052;-67
2023/01/19 13:02:59;;;;;;;12.48;2.55;;;6.30;99.90;;;;;;5090376;28;20667;-70
2023/01/19 13:05:47;;;;;;;12.48;3.40;;;6.20;99.90;;;;;;5096921;28;20092;-69
2023/01/19 13:08:14;;;;;;;;;;;6.20;99.90;;;;;;5096328;28;20113;-69
2023/01/19 13:10:58;;;;;;;11.70;2.90;;;6.10;99.90;;;;;;5094716;28;19966;-69
2023/01/19 13:13:43;;;;;;;14.43;3.40;;;6.00;99.90;;;;;;5097185;28;20051;-69